sensor_id;sensor_type;location;lat;lon;timestamp;P1;durP1;ratioP1;P2;durP2;ratioP2
10731;SDS011;74907;42.812;23.216;2024-02-16T00:00:08;14.53;;;10.87;;
10731;SDS011;74907;42.812;23.216;2024-02-16T00:02:37;17.50;;;11.40;;
10731;SDS011;74907;42.812;23.216;2024-02-16T00:05:04;13.77;;;11.07;;
10731;SDS011;74907;42.812;23.216;2024-02-16T00:07:32;12.67;;;10.80;;
10731;SDS011;74907;42.812;23.216;2024-02-16T00:10:00;13.57;;;11.17;;
10731;SDS011;74907;42.812;23.216;2024-02-16T00:12:29;17.83;;;10.70;;
10731;SDS011;74907;42.812;23.216;2024-02-16T00:14:56;17.83;;;11.60;;
10731;SDS011;74907;42.812;23.216;2024-02-16T00:17:23;13.10;;;10.67;;
10731;SDS011;74907;42.812;23.216;2024-02-16T00:19:51;13.57;;;10.70;;
10731;SDS011;74907;42.812;23.216;2024-02-16T00:22:18;12.80;;;10.30;;
10731;SDS011;74907;42.812;23.216;2024-02-16T00:24:45;15.00;;;9.90;;
10731;SDS011;74907;42.812;23.216;2024-02-16T00:27:14;9.43;;;8.40;;
10731;SDS011;74907;42.812;23.216;2024-02-16T00:29:41;11.70;;;9.07;;
10731;SDS011;74907;42.812;23.216;2024-02-16T00:32:09;13.47;;;9.90;;
10731;SDS011;74907;42.812;23.216;2024-02-16T00:34:36;9.30;;;8.33;;
10731;SDS011;74907;42.812;23.216;2024-02-16T00:37:04;9.43;;;8.50;;
10731;SDS011;74907;42.812;23.216;2024-02-16T00:39:34;11.30;;;9.43;;
10731;SDS011;74907;42.812;23.216;2024-02-16T00:42:01;12.00;;;8.57;;
10731;SDS011;74907;42.812;23.216;2024-02-16T00:44:29;11.87;;;9.20;;
10731;SDS011;74907;42.812;23.216;2024-02-16T00:46:56;10.00;;;8.43;;
10731;SDS011;74907;42.812;23.216;2024-02-16T00:49:23;9.03;;;8.20;;
10731;SDS011;74907;42.812;23.216;2024-02-16T00:51:50;11.50;;;8.67;;
10731;SDS011;74907;42.812;23.216;2024-02-16T00:54:16;9.77;;;8.43;;
10731;SDS011;74907;42.812;23.216;2024-02-16T00:56:43;10.87;;;8.40;;
10731;SDS011;74907;42.812;23.216;2024-02-16T00:59:10;10.43;;;8.20;;
10731;SDS011;74907;42.812;23.216;2024-02-16T01:01:38;11.90;;;8.93;;
10731;SDS011;74907;42.812;23.216;2024-02-16T01:04:05;10.23;;;8.90;;
10731;SDS011;74907;42.812;23.216;2024-02-16T01:06:32;10.43;;;8.80;;
10731;SDS011;74907;42.812;23.216;2024-02-16T01:08:58;11.73;;;8.53;;
10731;SDS011;74907;42.812;23.216;2024-02-16T01:11:25;10.50;;;8.67;;
10731;SDS011;74907;42.812;23.216;2024-02-16T01:13:52;10.90;;;8.90;;
10731;SDS011;74907;42.812;23.216;2024-02-16T01:16:18;11.53;;;9.27;;
10731;SDS011;74907;42.812;23.216;2024-02-16T01:18:46;10.87;;;9.57;;
10731;SDS011;74907;42.812;23.216;2024-02-16T01:21:13;10.97;;;9.83;;
10731;SDS011;74907;42.812;23.216;2024-02-16T01:23:40;11.87;;;9.87;;
10731;SDS011;74907;42.812;23.216;2024-02-16T01:26:07;9.83;;;8.47;;
10731;SDS011;74907;42.812;23.216;2024-02-16T01:28:33;8.77;;;7.90;;
10731;SDS011;74907;42.812;23.216;2024-02-16T01:31:00;10.30;;;8.53;;
10731;SDS011;74907;42.812;23.216;2024-02-16T01:33:27;10.77;;;8.80;;
10731;SDS011;74907;42.812;23.216;2024-02-16T01:35:55;8.73;;;7.83;;
10731;SDS011;74907;42.812;23.216;2024-02-16T01:38:22;10.27;;;9.20;;
10731;SDS011;74907;42.812;23.216;2024-02-16T01:40:49;10.17;;;8.20;;
10731;SDS011;74907;42.812;23.216;2024-02-16T01:43:18;14.07;;;9.50;;
10731;SDS011;74907;42.812;23.216;2024-02-16T01:45:45;9.90;;;8.47;;
10731;SDS011;74907;42.812;23.216;2024-02-16T01:48:12;15.30;;;9.17;;
10731;SDS011;74907;42.812;23.216;2024-02-16T01:50:40;11.50;;;8.97;;
10731;SDS011;74907;42.812;23.216;2024-02-16T01:53:11;13.50;;;9.33;;
10731;SDS011;74907;42.812;23.216;2024-02-16T01:55:38;14.10;;;8.83;;
10731;SDS011;74907;42.812;23.216;2024-02-16T01:58:05;10.10;;;8.23;;
10731;SDS011;74907;42.812;23.216;2024-02-16T02:00:32;9.17;;;8.03;;
10731;SDS011;74907;42.812;23.216;2024-02-16T02:02:59;10.53;;;8.30;;
10731;SDS011;74907;42.812;23.216;2024-02-16T02:05:26;10.70;;;8.43;;
10731;SDS011;74907;42.812;23.216;2024-02-16T02:07:52;9.60;;;8.60;;
10731;SDS011;74907;42.812;23.216;2024-02-16T02:10:20;10.90;;;7.97;;
10731;SDS011;74907;42.812;23.216;2024-02-16T02:12:47;9.40;;;8.50;;
10731;SDS011;74907;42.812;23.216;2024-02-16T02:15:14;11.33;;;8.57;;
10731;SDS011;74907;42.812;23.216;2024-02-16T02:17:40;12.70;;;8.73;;
10731;SDS011;74907;42.812;23.216;2024-02-16T02:20:07;14.13;;;10.20;;
10731;SDS011;74907;42.812;23.216;2024-02-16T02:22:37;12.90;;;10.33;;
10731;SDS011;74907;42.812;23.216;2024-02-16T02:25:04;13.70;;;11.00;;
10731;SDS011;74907;42.812;23.216;2024-02-16T02:27:31;15.70;;;12.43;;
10731;SDS011;74907;42.812;23.216;2024-02-16T02:29:58;12.87;;;10.73;;
10731;SDS011;74907;42.812;23.216;2024-02-16T02:32:24;13.73;;;10.80;;
10731;SDS011;74907;42.812;23.216;2024-02-16T02:34:51;12.97;;;10.17;;
10731;SDS011;74907;42.812;23.216;2024-02-16T02:37:18;14.97;;;10.10;;
10731;SDS011;74907;42.812;23.216;2024-02-16T02:39:46;13.93;;;9.60;;
10731;SDS011;74907;42.812;23.216;2024-02-16T02:42:13;11.33;;;9.20;;
10731;SDS011;74907;42.812;23.216;2024-02-16T02:44:39;12.57;;;9.57;;
10731;SDS011;74907;42.812;23.216;2024-02-16T02:47:07;12.30;;;9.50;;
10731;SDS011;74907;42.812;23.216;2024-02-16T02:49:34;12.80;;;10.03;;
10731;SDS011;74907;42.812;23.216;2024-02-16T02:52:01;11.40;;;9.33;;
10731;SDS011;74907;42.812;23.216;2024-02-16T02:54:28;10.60;;;9.27;;
10731;SDS011;74907;42.812;23.216;2024-02-16T02:56:56;12.10;;;9.53;;
10731;SDS011;74907;42.812;23.216;2024-02-16T02:59:23;13.87;;;10.10;;
10731;SDS011;74907;42.812;23.216;2024-02-16T03:01:49;14.40;;;11.23;;
10731;SDS011;74907;42.812;23.216;2024-02-16T03:04:16;14.83;;;10.37;;
10731;SDS011;74907;42.812;23.216;2024-02-16T03:06:43;12.00;;;10.40;;
10731;SDS011;74907;42.812;23.216;2024-02-16T03:09:10;11.47;;;9.17;;
10731;SDS011;74907;42.812;23.216;2024-02-16T03:11:37;10.40;;;9.00;;
10731;SDS011;74907;42.812;23.216;2024-02-16T03:14:05;12.20;;;9.07;;
10731;SDS011;74907;42.812;23.216;2024-02-16T03:16:33;9.30;;;8.27;;
10731;SDS011;74907;42.812;23.216;2024-02-16T03:18:59;9.37;;;8.23;;
10731;SDS011;74907;42.812;23.216;2024-02-16T03:21:26;11.70;;;8.53;;
10731;SDS011;74907;42.812;23.216;2024-02-16T03:23:53;9.87;;;8.27;;
10731;SDS011;74907;42.812;23.216;2024-02-16T03:26:19;9.77;;;8.10;;
10731;SDS011;74907;42.812;23.216;2024-02-16T03:28:46;11.13;;;8.67;;
10731;SDS011;74907;42.812;23.216;2024-02-16T03:31:19;9.27;;;8.27;;
10731;SDS011;74907;42.812;23.216;2024-02-16T03:33:46;9.07;;;8.17;;
10731;SDS011;74907;42.812;23.216;2024-02-16T03:36:13;11.03;;;9.40;;
10731;SDS011;74907;42.812;23.216;2024-02-16T03:38:41;10.00;;;8.20;;
10731;SDS011;74907;42.812;23.216;2024-02-16T03:41:12;10.00;;;8.77;;
10731;SDS011;74907;42.812;23.216;2024-02-16T03:43:39;11.37;;;8.57;;
10731;SDS011;74907;42.812;23.216;2024-02-16T03:46:06;13.07;;;9.27;;
10731;SDS011;74907;42.812;23.216;2024-02-16T03:48:34;9.73;;;8.00;;
10731;SDS011;74907;42.812;23.216;2024-02-16T03:51:01;37.93;;;24.07;;
10731;SDS011;74907;42.812;23.216;2024-02-16T03:53:29;9.93;;;8.93;;
10731;SDS011;74907;42.812;23.216;2024-02-16T03:55:55;13.30;;;9.17;;
10731;SDS011;74907;42.812;23.216;2024-02-16T03:58:22;11.37;;;9.23;;
10731;SDS011;74907;42.812;23.216;2024-02-16T04:00:50;10.10;;;9.07;;
10731;SDS011;74907;42.812;23.216;2024-02-16T04:03:17;14.50;;;11.00;;
10731;SDS011;74907;42.812;23.216;2024-02-16T04:05:46;14.27;;;10.80;;
10731;SDS011;74907;42.812;23.216;2024-02-16T04:08:12;11.40;;;10.20;;
10731;SDS011;74907;42.812;23.216;2024-02-16T04:10:39;14.67;;;10.67;;
10731;SDS011;74907;42.812;23.216;2024-02-16T04:13:06;15.20;;;11.10;;
10731;SDS011;74907;42.812;23.216;2024-02-16T04:15:32;17.17;;;11.30;;
10731;SDS011;74907;42.812;23.216;2024-02-16T04:17:59;14.67;;;10.83;;
10731;SDS011;74907;42.812;23.216;2024-02-16T04:20:26;15.60;;;10.40;;
10731;SDS011;74907;42.812;23.216;2024-02-16T04:22:54;14.40;;;10.93;;
10731;SDS011;74907;42.812;23.216;2024-02-16T04:25:20;14.13;;;11.03;;
10731;SDS011;74907;42.812;23.216;2024-02-16T04:27:47;13.23;;;10.57;;
10731;SDS011;74907;42.812;23.216;2024-02-16T04:30:14;19.70;;;11.63;;
10731;SDS011;74907;42.812;23.216;2024-02-16T04:32:41;12.87;;;10.83;;
10731;SDS011;74907;42.812;23.216;2024-02-16T04:35:07;18.23;;;12.40;;
10731;SDS011;74907;42.812;23.216;2024-02-16T04:37:37;19.00;;;12.63;;
10731;SDS011;74907;42.812;23.216;2024-02-16T04:40:05;15.67;;;12.27;;
10731;SDS011;74907;42.812;23.216;2024-02-16T04:42:33;12.40;;;10.70;;
10731;SDS011;74907;42.812;23.216;2024-02-16T04:45:00;12.50;;;10.70;;
10731;SDS011;74907;42.812;23.216;2024-02-16T04:47:27;18.53;;;15.03;;
10731;SDS011;74907;42.812;23.216;2024-02-16T04:49:53;18.37;;;13.27;;
10731;SDS011;74907;42.812;23.216;2024-02-16T04:52:20;18.03;;;13.37;;
10731;SDS011;74907;42.812;23.216;2024-02-16T04:54:47;18.13;;;12.70;;
10731;SDS011;74907;42.812;23.216;2024-02-16T04:57:15;17.20;;;12.37;;
10731;SDS011;74907;42.812;23.216;2024-02-16T04:59:41;17.20;;;11.50;;
10731;SDS011;74907;42.812;23.216;2024-02-16T05:02:08;12.67;;;9.97;;
10731;SDS011;74907;42.812;23.216;2024-02-16T05:04:35;15.47;;;10.77;;
10731;SDS011;74907;42.812;23.216;2024-02-16T05:07:02;14.43;;;10.73;;
10731;SDS011;74907;42.812;23.216;2024-02-16T05:09:31;15.80;;;11.70;;
10731;SDS011;74907;42.812;23.216;2024-02-16T05:11:58;14.03;;;11.57;;
10731;SDS011;74907;42.812;23.216;2024-02-16T05:14:26;13.87;;;11.07;;
10731;SDS011;74907;42.812;23.216;2024-02-16T05:16:53;15.80;;;11.90;;
10731;SDS011;74907;42.812;23.216;2024-02-16T05:19:19;15.67;;;12.17;;
10731;SDS011;74907;42.812;23.216;2024-02-16T05:21:46;17.13;;;15.33;;
10731;SDS011;74907;42.812;23.216;2024-02-16T05:24:13;21.03;;;17.47;;
10731;SDS011;74907;42.812;23.216;2024-02-16T05:26:40;38.27;;;32.90;;
10731;SDS011;74907;42.812;23.216;2024-02-16T05:29:06;31.97;;;28.43;;
10731;SDS011;74907;42.812;23.216;2024-02-16T05:31:35;23.70;;;19.30;;
10731;SDS011;74907;42.812;23.216;2024-02-16T05:34:03;16.17;;;13.23;;
10731;SDS011;74907;42.812;23.216;2024-02-16T05:36:29;11.00;;;9.67;;
10731;SDS011;74907;42.812;23.216;2024-02-16T05:39:00;13.87;;;11.57;;
10731;SDS011;74907;42.812;23.216;2024-02-16T05:41:35;17.20;;;13.97;;
10731;SDS011;74907;42.812;23.216;2024-02-16T05:44:03;21.53;;;17.47;;
10731;SDS011;74907;42.812;23.216;2024-02-16T05:46:30;31.23;;;27.90;;
10731;SDS011;74907;42.812;23.216;2024-02-16T05:48:58;29.07;;;25.97;;
10731;SDS011;74907;42.812;23.216;2024-02-16T05:51:27;21.60;;;17.93;;
10731;SDS011;74907;42.812;23.216;2024-02-16T05:53:54;23.73;;;18.87;;
10731;SDS011;74907;42.812;23.216;2024-02-16T05:56:21;19.57;;;16.90;;
10731;SDS011;74907;42.812;23.216;2024-02-16T05:58:48;29.57;;;19.13;;
10731;SDS011;74907;42.812;23.216;2024-02-16T06:01:15;24.70;;;18.23;;
10731;SDS011;74907;42.812;23.216;2024-02-16T06:03:42;21.60;;;15.93;;
10731;SDS011;74907;42.812;23.216;2024-02-16T06:06:11;24.63;;;17.23;;
10731;SDS011;74907;42.812;23.216;2024-02-16T06:08:37;22.40;;;16.50;;
10731;SDS011;74907;42.812;23.216;2024-02-16T06:11:06;24.37;;;16.17;;
10731;SDS011;74907;42.812;23.216;2024-02-16T06:13:33;31.37;;;19.87;;
10731;SDS011;74907;42.812;23.216;2024-02-16T06:16:00;23.97;;;15.87;;
10731;SDS011;74907;42.812;23.216;2024-02-16T06:18:27;21.20;;;14.60;;
10731;SDS011;74907;42.812;23.216;2024-02-16T06:20:54;19.43;;;15.93;;
10731;SDS011;74907;42.812;23.216;2024-02-16T06:23:22;24.47;;;15.37;;
10731;SDS011;74907;42.812;23.216;2024-02-16T06:25:49;21.87;;;13.50;;
10731;SDS011;74907;42.812;23.216;2024-02-16T06:28:16;20.40;;;15.23;;
10731;SDS011;74907;42.812;23.216;2024-02-16T06:30:43;22.33;;;15.40;;
10731;SDS011;74907;42.812;23.216;2024-02-16T06:33:09;19.37;;;15.63;;
10731;SDS011;74907;42.812;23.216;2024-02-16T06:35:36;17.27;;;13.37;;
10731;SDS011;74907;42.812;23.216;2024-02-16T06:38:03;27.67;;;20.50;;
10731;SDS011;74907;42.812;23.216;2024-02-16T06:40:32;105.27;;;95.97;;
10731;SDS011;74907;42.812;23.216;2024-02-16T06:42:58;43.13;;;33.37;;
10731;SDS011;74907;42.812;23.216;2024-02-16T06:45:25;13.20;;;11.87;;
10731;SDS011;74907;42.812;23.216;2024-02-16T06:47:52;17.37;;;15.57;;
10731;SDS011;74907;42.812;23.216;2024-02-16T06:50:19;16.20;;;14.10;;
10731;SDS011;74907;42.812;23.216;2024-02-16T06:52:45;18.50;;;16.60;;
10731;SDS011;74907;42.812;23.216;2024-02-16T06:55:12;17.73;;;16.17;;
10731;SDS011;74907;42.812;23.216;2024-02-16T06:57:40;15.87;;;14.37;;
10731;SDS011;74907;42.812;23.216;2024-02-16T07:00:09;14.47;;;13.07;;
10731;SDS011;74907;42.812;23.216;2024-02-16T07:02:37;12.87;;;10.40;;
10731;SDS011;74907;42.812;23.216;2024-02-16T07:05:04;10.63;;;9.53;;
10731;SDS011;74907;42.812;23.216;2024-02-16T07:07:31;10.33;;;9.43;;
10731;SDS011;74907;42.812;23.216;2024-02-16T07:10:01;14.07;;;11.83;;
10731;SDS011;74907;42.812;23.216;2024-02-16T07:12:28;50.40;;;45.53;;
10731;SDS011;74907;42.812;23.216;2024-02-16T07:14:56;12.67;;;10.97;;
10731;SDS011;74907;42.812;23.216;2024-02-16T07:17:23;15.70;;;13.00;;
10731;SDS011;74907;42.812;23.216;2024-02-16T07:19:49;12.57;;;11.27;;
10731;SDS011;74907;42.812;23.216;2024-02-16T07:22:16;15.93;;;14.43;;
10731;SDS011;74907;42.812;23.216;2024-02-16T07:24:43;12.33;;;11.23;;
10731;SDS011;74907;42.812;23.216;2024-02-16T07:27:10;11.63;;;10.43;;
10731;SDS011;74907;42.812;23.216;2024-02-16T07:29:36;12.00;;;10.83;;
10731;SDS011;74907;42.812;23.216;2024-02-16T07:32:06;11.40;;;9.70;;
10731;SDS011;74907;42.812;23.216;2024-02-16T07:34:33;10.67;;;9.77;;
10731;SDS011;74907;42.812;23.216;2024-02-16T07:36:59;10.83;;;9.80;;
10731;SDS011;74907;42.812;23.216;2024-02-16T07:39:26;9.63;;;8.73;;
10731;SDS011;74907;42.812;23.216;2024-02-16T07:41:54;10.63;;;9.60;;
10731;SDS011;74907;42.812;23.216;2024-02-16T07:44:20;10.73;;;9.73;;
10731;SDS011;74907;42.812;23.216;2024-02-16T07:46:47;12.23;;;10.10;;
10731;SDS011;74907;42.812;23.216;2024-02-16T07:49:17;13.83;;;10.20;;
10731;SDS011;74907;42.812;23.216;2024-02-16T07:51:43;11.20;;;10.20;;
10731;SDS011;74907;42.812;23.216;2024-02-16T07:54:10;11.53;;;10.33;;
10731;SDS011;74907;42.812;23.216;2024-02-16T07:56:37;11.93;;;10.10;;
10731;SDS011;74907;42.812;23.216;2024-02-16T07:59:04;11.40;;;10.30;;
10731;SDS011;74907;42.812;23.216;2024-02-16T08:01:30;12.10;;;11.00;;
10731;SDS011;74907;42.812;23.216;2024-02-16T08:03:57;11.60;;;10.30;;
10731;SDS011;74907;42.812;23.216;2024-02-16T08:06:28;12.03;;;10.70;;
10731;SDS011;74907;42.812;23.216;2024-02-16T08:08:55;12.10;;;10.90;;
10731;SDS011;74907;42.812;23.216;2024-02-16T08:11:22;11.83;;;10.63;;
10731;SDS011;74907;42.812;23.216;2024-02-16T08:13:49;11.47;;;10.30;;
10731;SDS011;74907;42.812;23.216;2024-02-16T08:16:15;12.53;;;11.23;;
10731;SDS011;74907;42.812;23.216;2024-02-16T08:18:43;13.70;;;10.67;;
10731;SDS011;74907;42.812;23.216;2024-02-16T08:21:10;11.53;;;10.37;;
10731;SDS011;74907;42.812;23.216;2024-02-16T08:23:38;12.93;;;10.33;;
10731;SDS011;74907;42.812;23.216;2024-02-16T08:26:05;12.27;;;11.00;;
10731;SDS011;74907;42.812;23.216;2024-02-16T08:28:32;13.23;;;10.53;;
10731;SDS011;74907;42.812;23.216;2024-02-16T08:30:58;11.67;;;9.30;;
10731;SDS011;74907;42.812;23.216;2024-02-16T08:33:25;9.63;;;8.53;;
10731;SDS011;74907;42.812;23.216;2024-02-16T08:35:52;10.47;;;9.47;;
10731;SDS011;74907;42.812;23.216;2024-02-16T08:38:19;11.30;;;10.10;;
10731;SDS011;74907;42.812;23.216;2024-02-16T08:40:47;10.67;;;9.60;;
10731;SDS011;74907;42.812;23.216;2024-02-16T08:43:16;11.27;;;9.70;;
10731;SDS011;74907;42.812;23.216;2024-02-16T08:45:43;10.73;;;9.50;;
10731;SDS011;74907;42.812;23.216;2024-02-16T08:48:10;10.97;;;9.97;;
10731;SDS011;74907;42.812;23.216;2024-02-16T08:50:36;11.43;;;9.67;;
10731;SDS011;74907;42.812;23.216;2024-02-16T08:53:03;11.13;;;9.73;;
10731;SDS011;74907;42.812;23.216;2024-02-16T08:55:30;10.40;;;9.07;;
10731;SDS011;74907;42.812;23.216;2024-02-16T08:57:58;9.63;;;8.33;;
10731;SDS011;74907;42.812;23.216;2024-02-16T09:00:25;9.73;;;8.83;;
10731;SDS011;74907;42.812;23.216;2024-02-16T09:02:52;10.33;;;9.23;;
10731;SDS011;74907;42.812;23.216;2024-02-16T09:05:18;9.50;;;8.60;;
10731;SDS011;74907;42.812;23.216;2024-02-16T09:07:45;9.67;;;8.70;;
10731;SDS011;74907;42.812;23.216;2024-02-16T09:10:12;9.47;;;8.67;;
10731;SDS011;74907;42.812;23.216;2024-02-16T09:12:40;10.83;;;9.83;;
10731;SDS011;74907;42.812;23.216;2024-02-16T09:15:09;9.57;;;8.67;;
10731;SDS011;74907;42.812;23.216;2024-02-16T09:17:37;10.20;;;9.17;;
10731;SDS011;74907;42.812;23.216;2024-02-16T09:20:04;10.73;;;9.80;;
10731;SDS011;74907;42.812;23.216;2024-02-16T09:22:33;11.03;;;10.03;;
10731;SDS011;74907;42.812;23.216;2024-02-16T09:25:01;10.67;;;9.47;;
10731;SDS011;74907;42.812;23.216;2024-02-16T09:27:28;10.17;;;9.17;;
10731;SDS011;74907;42.812;23.216;2024-02-16T09:29:55;10.23;;;9.30;;
10731;SDS011;74907;42.812;23.216;2024-02-16T09:32:23;10.70;;;9.60;;
10731;SDS011;74907;42.812;23.216;2024-02-16T09:34:49;13.23;;;10.10;;
10731;SDS011;74907;42.812;23.216;2024-02-16T09:37:17;8.90;;;8.00;;
10731;SDS011;74907;42.812;23.216;2024-02-16T09:39:43;8.97;;;8.17;;
10731;SDS011;74907;42.812;23.216;2024-02-16T09:42:10;9.03;;;7.70;;
10731;SDS011;74907;42.812;23.216;2024-02-16T09:44:39;8.90;;;8.03;;
10731;SDS011;74907;42.812;23.216;2024-02-16T09:47:07;10.43;;;9.43;;
10731;SDS011;74907;42.812;23.216;2024-02-16T09:49:39;9.07;;;8.27;;
10731;SDS011;74907;42.812;23.216;2024-02-16T09:52:06;8.00;;;7.40;;
10731;SDS011;74907;42.812;23.216;2024-02-16T09:54:36;7.67;;;7.10;;
10731;SDS011;74907;42.812;23.216;2024-02-16T09:57:03;6.63;;;6.03;;
10731;SDS011;74907;42.812;23.216;2024-02-16T09:59:30;6.50;;;6.00;;
10731;SDS011;74907;42.812;23.216;2024-02-16T10:02:00;6.70;;;6.20;;
10731;SDS011;74907;42.812;23.216;2024-02-16T10:04:27;5.90;;;5.33;;
10731;SDS011;74907;42.812;23.216;2024-02-16T10:06:55;5.80;;;5.40;;
10731;SDS011;74907;42.812;23.216;2024-02-16T10:09:23;6.67;;;6.13;;
10731;SDS011;74907;42.812;23.216;2024-02-16T10:11:50;5.00;;;4.60;;
10731;SDS011;74907;42.812;23.216;2024-02-16T10:14:17;5.20;;;4.90;;
10731;SDS011;74907;42.812;23.216;2024-02-16T10:16:44;5.73;;;5.23;;
10731;SDS011;74907;42.812;23.216;2024-02-16T10:19:11;6.10;;;5.60;;
10731;SDS011;74907;42.812;23.216;2024-02-16T10:21:38;4.50;;;3.80;;
10731;SDS011;74907;42.812;23.216;2024-02-16T10:24:07;3.60;;;3.40;;
10731;SDS011;74907;42.812;23.216;2024-02-16T10:26:35;4.00;;;3.77;;
10731;SDS011;74907;42.812;23.216;2024-02-16T10:29:03;4.87;;;4.47;;
10731;SDS011;74907;42.812;23.216;2024-02-16T10:31:31;4.27;;;3.97;;
10731;SDS011;74907;42.812;23.216;2024-02-16T10:33:58;4.03;;;3.70;;
10731;SDS011;74907;42.812;23.216;2024-02-16T10:36:27;4.53;;;4.23;;
10731;SDS011;74907;42.812;23.216;2024-02-16T10:38:55;4.33;;;4.03;;
10731;SDS011;74907;42.812;23.216;2024-02-16T10:41:26;4.60;;;4.23;;
10731;SDS011;74907;42.812;23.216;2024-02-16T10:43:54;4.77;;;4.27;;
10731;SDS011;74907;42.812;23.216;2024-02-16T10:46:22;4.70;;;3.80;;
10731;SDS011;74907;42.812;23.216;2024-02-16T10:48:49;4.53;;;4.13;;
10731;SDS011;74907;42.812;23.216;2024-02-16T10:51:16;3.50;;;3.23;;
10731;SDS011;74907;42.812;23.216;2024-02-16T10:53:47;4.73;;;4.33;;
10731;SDS011;74907;42.812;23.216;2024-02-16T10:56:27;4.50;;;4.20;;
10731;SDS011;74907;42.812;23.216;2024-02-16T10:58:59;4.03;;;3.73;;
10731;SDS011;74907;42.812;23.216;2024-02-16T11:01:28;3.80;;;3.40;;
10731;SDS011;74907;42.812;23.216;2024-02-16T11:04:02;3.67;;;3.47;;
10731;SDS011;74907;42.812;23.216;2024-02-16T11:06:30;4.30;;;3.90;;
10731;SDS011;74907;42.812;23.216;2024-02-16T11:09:01;4.37;;;4.03;;
10731;SDS011;74907;42.812;23.216;2024-02-16T11:11:34;3.87;;;3.57;;
10731;SDS011;74907;42.812;23.216;2024-02-16T11:14:01;5.37;;;4.57;;
10731;SDS011;74907;42.812;23.216;2024-02-16T11:16:28;4.30;;;4.00;;
10731;SDS011;74907;42.812;23.216;2024-02-16T11:18:56;4.33;;;3.73;;
10731;SDS011;74907;42.812;23.216;2024-02-16T11:21:22;4.07;;;3.77;;
10731;SDS011;74907;42.812;23.216;2024-02-16T11:23:49;3.60;;;3.30;;
10731;SDS011;74907;42.812;23.216;2024-02-16T11:26:17;2.60;;;2.50;;
10731;SDS011;74907;42.812;23.216;2024-02-16T11:28:45;2.43;;;2.30;;
10731;SDS011;74907;42.812;23.216;2024-02-16T11:31:12;2.30;;;2.20;;
10731;SDS011;74907;42.812;23.216;2024-02-16T11:33:43;2.20;;;2.10;;
10731;SDS011;74907;42.812;23.216;2024-02-16T11:36:10;2.97;;;2.60;;
10731;SDS011;74907;42.812;23.216;2024-02-16T11:38:37;2.70;;;2.60;;
10731;SDS011;74907;42.812;23.216;2024-02-16T11:41:04;3.53;;;2.33;;
10731;SDS011;74907;42.812;23.216;2024-02-16T11:43:33;2.90;;;2.70;;
10731;SDS011;74907;42.812;23.216;2024-02-16T11:46:11;2.60;;;2.40;;
10731;SDS011;74907;42.812;23.216;2024-02-16T11:48:39;2.90;;;2.63;;
10731;SDS011;74907;42.812;23.216;2024-02-16T11:51:06;2.40;;;2.30;;
10731;SDS011;74907;42.812;23.216;2024-02-16T11:53:33;2.40;;;2.20;;
10731;SDS011;74907;42.812;23.216;2024-02-16T11:56:00;2.43;;;2.23;;
10731;SDS011;74907;42.812;23.216;2024-02-16T11:58:27;2.13;;;2.03;;
10731;SDS011;74907;42.812;23.216;2024-02-16T12:00:54;3.00;;;2.83;;
10731;SDS011;74907;42.812;23.216;2024-02-16T12:03:23;3.00;;;2.80;;
10731;SDS011;74907;42.812;23.216;2024-02-16T12:05:52;3.20;;;2.43;;
10731;SDS011;74907;42.812;23.216;2024-02-16T12:08:20;3.87;;;3.60;;
10731;SDS011;74907;42.812;23.216;2024-02-16T12:10:47;3.00;;;2.73;;
10731;SDS011;74907;42.812;23.216;2024-02-16T12:13:15;2.70;;;2.60;;
10731;SDS011;74907;42.812;23.216;2024-02-16T12:15:43;2.30;;;2.20;;
10731;SDS011;74907;42.812;23.216;2024-02-16T12:18:10;2.20;;;2.10;;
10731;SDS011;74907;42.812;23.216;2024-02-16T12:20:38;2.30;;;2.20;;
10731;SDS011;74907;42.812;23.216;2024-02-16T12:23:11;3.77;;;3.47;;
10731;SDS011;74907;42.812;23.216;2024-02-16T12:25:38;2.87;;;2.67;;
10731;SDS011;74907;42.812;23.216;2024-02-16T12:28:05;3.37;;;3.17;;
10731;SDS011;74907;42.812;23.216;2024-02-16T12:30:33;3.00;;;2.80;;
10731;SDS011;74907;42.812;23.216;2024-02-16T12:32:59;3.07;;;2.43;;
10731;SDS011;74907;42.812;23.216;2024-02-16T12:35:26;2.20;;;2.10;;
10731;SDS011;74907;42.812;23.216;2024-02-16T12:37:54;2.23;;;2.13;;
10731;SDS011;74907;42.812;23.216;2024-02-16T12:40:21;3.07;;;2.77;;
10731;SDS011;74907;42.812;23.216;2024-02-16T12:42:48;2.70;;;2.50;;
10731;SDS011;74907;42.812;23.216;2024-02-16T12:45:15;2.73;;;2.60;;
10731;SDS011;74907;42.812;23.216;2024-02-16T12:47:42;2.70;;;2.50;;
10731;SDS011;74907;42.812;23.216;2024-02-16T12:50:09;2.77;;;2.57;;
10731;SDS011;74907;42.812;23.216;2024-02-16T12:52:35;3.30;;;3.07;;
10731;SDS011;74907;42.812;23.216;2024-02-16T12:55:05;3.20;;;3.10;;
10731;SDS011;74907;42.812;23.216;2024-02-16T12:57:33;3.03;;;2.90;;
10731;SDS011;74907;42.812;23.216;2024-02-16T13:00:00;2.97;;;2.70;;
10731;SDS011;74907;42.812;23.216;2024-02-16T13:02:27;3.03;;;2.60;;
10731;SDS011;74907;42.812;23.216;2024-02-16T13:04:54;2.87;;;2.57;;
10731;SDS011;74907;42.812;23.216;2024-02-16T13:07:21;3.07;;;2.87;;
10731;SDS011;74907;42.812;23.216;2024-02-16T13:09:48;4.13;;;3.00;;
10731;SDS011;74907;42.812;23.216;2024-02-16T13:12:17;4.37;;;3.47;;
10731;SDS011;74907;42.812;23.216;2024-02-16T13:14:45;3.20;;;3.00;;
10731;SDS011;74907;42.812;23.216;2024-02-16T13:17:12;4.47;;;4.07;;
10731;SDS011;74907;42.812;23.216;2024-02-16T13:19:39;2.73;;;2.50;;
10731;SDS011;74907;42.812;23.216;2024-02-16T13:22:05;4.20;;;3.90;;
10731;SDS011;74907;42.812;23.216;2024-02-16T13:24:32;5.13;;;4.40;;
10731;SDS011;74907;42.812;23.216;2024-02-16T13:26:59;3.00;;;2.70;;
10731;SDS011;74907;42.812;23.216;2024-02-16T13:29:28;4.53;;;3.77;;
10731;SDS011;74907;42.812;23.216;2024-02-16T13:31:55;6.97;;;6.37;;
10731;SDS011;74907;42.812;23.216;2024-02-16T13:34:22;5.13;;;4.73;;
10731;SDS011;74907;42.812;23.216;2024-02-16T13:36:49;3.37;;;3.07;;
10731;SDS011;74907;42.812;23.216;2024-02-16T13:39:16;3.00;;;2.80;;
10731;SDS011;74907;42.812;23.216;2024-02-16T13:41:44;10.10;;;8.43;;
10731;SDS011;74907;42.812;23.216;2024-02-16T13:44:13;4.60;;;4.20;;
10731;SDS011;74907;42.812;23.216;2024-02-16T13:46:42;5.60;;;5.10;;
10731;SDS011;74907;42.812;23.216;2024-02-16T13:49:11;3.77;;;3.47;;
10731;SDS011;74907;42.812;23.216;2024-02-16T13:51:38;5.20;;;4.70;;
10731;SDS011;74907;42.812;23.216;2024-02-16T13:54:05;4.80;;;4.50;;
10731;SDS011;74907;42.812;23.216;2024-02-16T13:56:32;4.33;;;3.93;;
10731;SDS011;74907;42.812;23.216;2024-02-16T13:59:00;3.13;;;2.93;;
10731;SDS011;74907;42.812;23.216;2024-02-16T14:01:27;4.03;;;3.50;;
10731;SDS011;74907;42.812;23.216;2024-02-16T14:03:55;3.90;;;3.60;;
10731;SDS011;74907;42.812;23.216;2024-02-16T14:06:22;4.73;;;4.43;;
10731;SDS011;74907;42.812;23.216;2024-02-16T14:08:49;3.00;;;2.90;;
10731;SDS011;74907;42.812;23.216;2024-02-16T14:11:17;3.70;;;3.20;;
10731;SDS011;74907;42.812;23.216;2024-02-16T14:13:44;2.67;;;2.57;;
10731;SDS011;74907;42.812;23.216;2024-02-16T14:16:11;3.50;;;3.30;;
10731;SDS011;74907;42.812;23.216;2024-02-16T14:18:37;3.23;;;2.97;;
10731;SDS011;74907;42.812;23.216;2024-02-16T14:21:05;3.17;;;2.97;;